Details From KHAE - Hannibal Rgnl
To KUES - Waukesha Co
Flight Number -
Tags Decoded
Created
Modified
Stats Distance 269 nm / 499 km
Max Altitude 0 ft / 0 m
Waypoints 5
Social Downloads 1
Likes 0
Share VATSIM

Download

Looking for another format? Having issues loading an existing format? Contact us
Advertisement - Login to hide

Notes

Decoded

Route

KHAE UIN PIA JOT KUES

ID Type Via Altitude Latitude Longitude Leg Dist Tot Dist Heading (true) Name
O KHAE APT - 0 ft / 0 m 39.73111˚ -91.44524˚ - 0 nm - -
UIN VOR - 0 ft / 0 m 39.84786˚ -91.27892˚ 10 nm 10 nm 48° / 48° QUINCY VORTAC
PIA VOR - 0 ft / 0 m 40.68008˚ -89.79281˚ 84 nm 94 nm 53° / 54° PEORIA VORTAC
JOT VOR - 0 ft / 0 m 41.54642˚ -88.31842˚ 84 nm 179 nm 52° / 53° JOLIET VORTAC
O KUES APT - 0 ft / 0 m 43.04392˚ -88.23333˚ 90 nm 269 nm 2° / 2° -

Altitude Profile

Advertisement - Login to hide

Weather


0- 5 10 15 20 25 30 35+ Temperature / ° C

Clouds and Precipitation
Forecast for 2018-05-23 12:00 UTC. Updated 6 hours ago

Ground ~20,000 ft ~40,000 ft Winds

KHAE

Details ICAO KHAE
Name HANNIBAL RGNL
Region United States
Timezone America/Chicago (UTC-5.0)
Stats Elevation 773 ft / 236 m (AMSL)
Location 39.725165° -91.443849°
Runways 1
Magnetic Variation 0.739° W

METAR

KHAE 231635Z AUTO 00000KT 10SM CLR 28/15 A3017 RMK AO2

Decode

TAF

Not found

Departure Runways

ID Width Length Bearing (true) Bearing (mag) Surface Threshold Offset Overrun Length
17 100 ft / 30 m 4,407 ft / 1,343 m 169.80° 170.54° Concrete 0 ft / 0 m 0 ft / 0 m
35 100 ft / 30 m 4,407 ft / 1,343 m 349.80° 350.54° Concrete 0 ft / 0 m 0 ft / 0 m

KUES

Details ICAO KUES
Name Waukesha Co
Region United States
Timezone America/Chicago (UTC-5.0)
Stats Elevation 911 ft / 278 m (AMSL)
Location 43.040641° -88.236487°
Runways 2
Magnetic Variation 3.662° W

METAR

KUES 231645Z 00000KT 10SM SKC 22/11 A3021

Decode

TAF

TAF AMD KUES 231306Z 2313/2412 00000KT P6SM SCT250 FM231400 VRB04KT P6SM FEW035 FM231900 18006KT P6SM FEW250

Decode

Destination Runways

ID Width Length Bearing (true) Bearing (mag) Surface Threshold Offset Overrun Length
10 98 ft / 30 m 5,837 ft / 1,779 m 101.99° 105.65° Concrete 0 ft / 0 m 0 ft / 0 m
18 75 ft / 23 m 3,602 ft / 1,098 m 185.25° 188.91° Asphalt 0 ft / 0 m 0 ft / 0 m
28 98 ft / 30 m 5,837 ft / 1,779 m 282.00° 285.66° Concrete 0 ft / 0 m 0 ft / 0 m
36 75 ft / 23 m 3,602 ft / 1,098 m 5.25° 8.91° Asphalt 0 ft / 0 m 0 ft / 0 m

Approach Navaids

Runway Type Ident Frequency Range Bearing (true) Bearing (mag) Slope Elevation
10 Localiser ISKC 109.50 MHz 18 nm / 33 km 102.00° 105.66° - 911 ft / 278 m (AMSL)
10 Glidescope ISKC 109.50 MHz 10 nm / 19 km 102.00° 105.66° 3.00° 897 ft / 273 m (AMSL)